sensor_id;sensor_type;location;lat;lon;timestamp;P1;durP1;ratioP1;P2;durP2;ratioP2
53931;SDS011;39844;52.496;13.482;2022-07-25T00:01:10;1.50;;;1.40;;
53931;SDS011;39844;52.496;13.482;2022-07-25T00:03:35;1.55;;;1.48;;
53931;SDS011;39844;52.496;13.482;2022-07-25T00:06:01;2.83;;;1.25;;
53931;SDS011;39844;52.496;13.482;2022-07-25T00:08:26;1.52;;;1.42;;
53931;SDS011;39844;52.496;13.482;2022-07-25T00:10:51;1.50;;;1.40;;
53931;SDS011;39844;52.496;13.482;2022-07-25T00:13:17;1.95;;;1.85;;
53931;SDS011;39844;52.496;13.482;2022-07-25T00:15:42;1.55;;;1.45;;
53931;SDS011;39844;52.496;13.482;2022-07-25T00:18:07;1.52;;;1.42;;
53931;SDS011;39844;52.496;13.482;2022-07-25T00:20:33;1.30;;;1.30;;
53931;SDS011;39844;52.496;13.482;2022-07-25T00:22:58;1.35;;;1.27;;
53931;SDS011;39844;52.496;13.482;2022-07-25T00:25:23;1.20;;;1.20;;
53931;SDS011;39844;52.496;13.482;2022-07-25T00:27:49;1.70;;;1.60;;
53931;SDS011;39844;52.496;13.482;2022-07-25T00:30:14;1.63;;;1.52;;
53931;SDS011;39844;52.496;13.482;2022-07-25T00:32:39;1.98;;;1.60;;
53931;SDS011;39844;52.496;13.482;2022-07-25T00:35:05;1.70;;;1.60;;
53931;SDS011;39844;52.496;13.482;2022-07-25T00:37:30;2.55;;;1.60;;
53931;SDS011;39844;52.496;13.482;2022-07-25T00:39:56;1.58;;;1.50;;
53931;SDS011;39844;52.496;13.482;2022-07-25T00:42:21;1.48;;;1.38;;
53931;SDS011;39844;52.496;13.482;2022-07-25T00:44:48;1.73;;;1.63;;
53931;SDS011;39844;52.496;13.482;2022-07-25T00:47:13;1.38;;;1.30;;
53931;SDS011;39844;52.496;13.482;2022-07-25T00:49:38;1.20;;;1.20;;
53931;SDS011;39844;52.496;13.482;2022-07-25T00:52:04;1.67;;;1.50;;
53931;SDS011;39844;52.496;13.482;2022-07-25T00:54:29;1.58;;;1.48;;
53931;SDS011;39844;52.496;13.482;2022-07-25T00:56:55;1.45;;;1.30;;
53931;SDS011;39844;52.496;13.482;2022-07-25T00:59:20;2.58;;;1.30;;
53931;SDS011;39844;52.496;13.482;2022-07-25T01:01:46;1.35;;;1.35;;
53931;SDS011;39844;52.496;13.482;2022-07-25T01:04:12;1.38;;;1.38;;
53931;SDS011;39844;52.496;13.482;2022-07-25T01:06:38;1.48;;;1.38;;
53931;SDS011;39844;52.496;13.482;2022-07-25T01:09:05;1.33;;;1.33;;
53931;SDS011;39844;52.496;13.482;2022-07-25T01:11:31;1.48;;;1.38;;
53931;SDS011;39844;52.496;13.482;2022-07-25T01:13:57;1.55;;;1.50;;
53931;SDS011;39844;52.496;13.482;2022-07-25T01:16:22;1.92;;;1.83;;
53931;SDS011;39844;52.496;13.482;2022-07-25T01:18:47;1.23;;;1.23;;
53931;SDS011;39844;52.496;13.482;2022-07-25T01:21:13;1.40;;;1.40;;
53931;SDS011;39844;52.496;13.482;2022-07-25T01:23:38;1.52;;;1.42;;
53931;SDS011;39844;52.496;13.482;2022-07-25T01:26:04;1.30;;;1.30;;
53931;SDS011;39844;52.496;13.482;2022-07-25T01:28:29;1.88;;;1.45;;
53931;SDS011;39844;52.496;13.482;2022-07-25T01:30:55;1.35;;;1.30;;
53931;SDS011;39844;52.496;13.482;2022-07-25T01:33:20;1.58;;;1.48;;
53931;SDS011;39844;52.496;13.482;2022-07-25T01:35:46;1.90;;;1.20;;
53931;SDS011;39844;52.496;13.482;2022-07-25T01:38:13;1.83;;;1.65;;
53931;SDS011;39844;52.496;13.482;2022-07-25T01:40:39;1.60;;;1.50;;
53931;SDS011;39844;52.496;13.482;2022-07-25T01:43:04;1.40;;;1.35;;
53931;SDS011;39844;52.496;13.482;2022-07-25T01:45:30;1.23;;;1.23;;
53931;SDS011;39844;52.496;13.482;2022-07-25T01:47:56;1.20;;;1.20;;
53931;SDS011;39844;52.496;13.482;2022-07-25T01:50:21;2.65;;;1.35;;
53931;SDS011;39844;52.496;13.482;2022-07-25T01:52:47;1.42;;;1.33;;
53931;SDS011;39844;52.496;13.482;2022-07-25T01:55:13;1.25;;;1.25;;
53931;SDS011;39844;52.496;13.482;2022-07-25T01:57:38;1.55;;;1.55;;
53931;SDS011;39844;52.496;13.482;2022-07-25T02:00:06;1.50;;;1.40;;
53931;SDS011;39844;52.496;13.482;2022-07-25T02:02:34;1.10;;;1.10;;
53931;SDS011;39844;52.496;13.482;2022-07-25T02:04:59;1.58;;;1.48;;
53931;SDS011;39844;52.496;13.482;2022-07-25T02:07:24;1.45;;;1.35;;
53931;SDS011;39844;52.496;13.482;2022-07-25T02:09:50;1.20;;;1.20;;
53931;SDS011;39844;52.496;13.482;2022-07-25T02:12:15;1.45;;;1.35;;
53931;SDS011;39844;52.496;13.482;2022-07-25T02:14:40;1.30;;;1.30;;
53931;SDS011;39844;52.496;13.482;2022-07-25T02:17:06;1.05;;;1.05;;
53931;SDS011;39844;52.496;13.482;2022-07-25T02:19:31;1.48;;;1.38;;
53931;SDS011;39844;52.496;13.482;2022-07-25T02:21:57;1.17;;;1.17;;
53931;SDS011;39844;52.496;13.482;2022-07-25T02:24:22;1.50;;;1.40;;
53931;SDS011;39844;52.496;13.482;2022-07-25T02:26:48;1.50;;;1.50;;
53931;SDS011;39844;52.496;13.482;2022-07-25T02:29:13;1.45;;;1.40;;
53931;SDS011;39844;52.496;13.482;2022-07-25T02:31:39;1.60;;;1.50;;
53931;SDS011;39844;52.496;13.482;2022-07-25T02:34:04;1.10;;;1.10;;
53931;SDS011;39844;52.496;13.482;2022-07-25T02:36:29;1.10;;;1.10;;
53931;SDS011;39844;52.496;13.482;2022-07-25T02:38:55;1.20;;;1.20;;
53931;SDS011;39844;52.496;13.482;2022-07-25T02:41:20;1.45;;;1.45;;
53931;SDS011;39844;52.496;13.482;2022-07-25T02:43:45;1.53;;;1.43;;
53931;SDS011;39844;52.496;13.482;2022-07-25T02:46:11;2.60;;;1.30;;
53931;SDS011;39844;52.496;13.482;2022-07-25T02:48:36;2.30;;;1.80;;
53931;SDS011;39844;52.496;13.482;2022-07-25T02:51:01;1.40;;;1.40;;
53931;SDS011;39844;52.496;13.482;2022-07-25T02:53:27;1.10;;;1.10;;
53931;SDS011;39844;52.496;13.482;2022-07-25T02:55:52;1.50;;;1.40;;
53931;SDS011;39844;52.496;13.482;2022-07-25T02:58:17;2.67;;;1.57;;
53931;SDS011;39844;52.496;13.482;2022-07-25T03:00:43;2.43;;;1.37;;
53931;SDS011;39844;52.496;13.482;2022-07-25T03:03:08;1.63;;;1.27;;
53931;SDS011;39844;52.496;13.482;2022-07-25T03:05:33;1.30;;;1.30;;
53931;SDS011;39844;52.496;13.482;2022-07-25T03:07:59;1.40;;;1.40;;
53931;SDS011;39844;52.496;13.482;2022-07-25T03:10:24;1.90;;;1.47;;
53931;SDS011;39844;52.496;13.482;2022-07-25T03:12:50;1.63;;;1.53;;
53931;SDS011;39844;52.496;13.482;2022-07-25T03:15:15;2.53;;;1.43;;
53931;SDS011;39844;52.496;13.482;2022-07-25T03:17:40;1.50;;;1.40;;
53931;SDS011;39844;52.496;13.482;2022-07-25T03:20:06;1.53;;;1.43;;
53931;SDS011;39844;52.496;13.482;2022-07-25T03:22:33;1.43;;;1.30;;
53931;SDS011;39844;52.496;13.482;2022-07-25T03:24:59;1.60;;;1.50;;
53931;SDS011;39844;52.496;13.482;2022-07-25T03:27:24;1.40;;;1.40;;
53931;SDS011;39844;52.496;13.482;2022-07-25T03:29:50;1.53;;;1.47;;
53931;SDS011;39844;52.496;13.482;2022-07-25T03:32:15;1.93;;;1.57;;
53931;SDS011;39844;52.496;13.482;2022-07-25T03:34:40;1.40;;;1.30;;
53931;SDS011;39844;52.496;13.482;2022-07-25T03:37:06;1.30;;;1.30;;
53931;SDS011;39844;52.496;13.482;2022-07-25T03:39:31;2.13;;;1.57;;
53931;SDS011;39844;52.496;13.482;2022-07-25T03:41:57;1.30;;;1.30;;
53931;SDS011;39844;52.496;13.482;2022-07-25T03:44:23;1.90;;;1.50;;
53931;SDS011;39844;52.496;13.482;2022-07-25T03:46:49;2.33;;;1.40;;
53931;SDS011;39844;52.496;13.482;2022-07-25T03:49:15;1.50;;;1.40;;
53931;SDS011;39844;52.496;13.482;2022-07-25T03:51:41;1.20;;;1.20;;
53931;SDS011;39844;52.496;13.482;2022-07-25T03:54:07;1.47;;;1.37;;
53931;SDS011;39844;52.496;13.482;2022-07-25T03:56:38;10.67;;;1.53;;
53931;SDS011;39844;52.496;13.482;2022-07-25T03:59:09;1.40;;;1.40;;
53931;SDS011;39844;52.496;13.482;2022-07-25T04:01:35;1.40;;;1.40;;
53931;SDS011;39844;52.496;13.482;2022-07-25T04:04:01;1.40;;;1.40;;
53931;SDS011;39844;52.496;13.482;2022-07-25T04:06:27;1.80;;;1.43;;
53931;SDS011;39844;52.496;13.482;2022-07-25T04:08:52;1.60;;;1.37;;
53931;SDS011;39844;52.496;13.482;2022-07-25T04:11:19;1.53;;;1.47;;
53931;SDS011;39844;52.496;13.482;2022-07-25T04:13:45;3.80;;;1.40;;
53931;SDS011;39844;52.496;13.482;2022-07-25T04:16:10;1.20;;;1.10;;
53931;SDS011;39844;52.496;13.482;2022-07-25T04:18:36;1.50;;;1.40;;
53931;SDS011;39844;52.496;13.482;2022-07-25T04:21:02;1.40;;;1.30;;
53931;SDS011;39844;52.496;13.482;2022-07-25T04:23:28;1.27;;;1.20;;
53931;SDS011;39844;52.496;13.482;2022-07-25T04:25:55;1.40;;;1.40;;
53931;SDS011;39844;52.496;13.482;2022-07-25T04:28:20;1.57;;;1.47;;
53931;SDS011;39844;52.496;13.482;2022-07-25T04:30:46;2.23;;;1.60;;
53931;SDS011;39844;52.496;13.482;2022-07-25T04:33:12;1.60;;;1.50;;
53931;SDS011;39844;52.496;13.482;2022-07-25T04:35:38;1.27;;;1.20;;
53931;SDS011;39844;52.496;13.482;2022-07-25T04:38:03;1.50;;;1.50;;
53931;SDS011;39844;52.496;13.482;2022-07-25T04:40:29;1.40;;;1.30;;
53931;SDS011;39844;52.496;13.482;2022-07-25T04:42:54;1.67;;;1.40;;
53931;SDS011;39844;52.496;13.482;2022-07-25T04:45:19;1.47;;;1.40;;
53931;SDS011;39844;52.496;13.482;2022-07-25T04:47:45;1.17;;;1.17;;
53931;SDS011;39844;52.496;13.482;2022-07-25T04:50:11;1.30;;;1.30;;
53931;SDS011;39844;52.496;13.482;2022-07-25T04:52:37;1.20;;;1.20;;
53931;SDS011;39844;52.496;13.482;2022-07-25T04:55:02;1.30;;;1.20;;
53931;SDS011;39844;52.496;13.482;2022-07-25T04:57:28;4.83;;;1.53;;
53931;SDS011;39844;52.496;13.482;2022-07-25T04:59:54;2.43;;;1.50;;
53931;SDS011;39844;52.496;13.482;2022-07-25T05:02:20;1.50;;;1.30;;
53931;SDS011;39844;52.496;13.482;2022-07-25T05:04:45;1.40;;;1.40;;
53931;SDS011;39844;52.496;13.482;2022-07-25T05:07:11;2.60;;;1.47;;
53931;SDS011;39844;52.496;13.482;2022-07-25T05:09:36;2.50;;;1.47;;
53931;SDS011;39844;52.496;13.482;2022-07-25T05:12:02;2.92;;;1.45;;
53931;SDS011;39844;52.496;13.482;2022-07-25T05:14:27;1.38;;;1.27;;
53931;SDS011;39844;52.496;13.482;2022-07-25T05:16:52;1.60;;;1.50;;
53931;SDS011;39844;52.496;13.482;2022-07-25T05:19:18;2.10;;;1.30;;
53931;SDS011;39844;52.496;13.482;2022-07-25T05:21:43;1.50;;;1.40;;
53931;SDS011;39844;52.496;13.482;2022-07-25T05:24:08;1.42;;;1.25;;
53931;SDS011;39844;52.496;13.482;2022-07-25T05:26:33;4.32;;;1.52;;
53931;SDS011;39844;52.496;13.482;2022-07-25T05:28:59;1.55;;;1.30;;
53931;SDS011;39844;52.496;13.482;2022-07-25T05:31:24;5.97;;;1.50;;
53931;SDS011;39844;52.496;13.482;2022-07-25T05:33:49;3.13;;;1.40;;
53931;SDS011;39844;52.496;13.482;2022-07-25T05:36:15;1.27;;;1.27;;
53931;SDS011;39844;52.496;13.482;2022-07-25T05:38:40;1.60;;;1.50;;
53931;SDS011;39844;52.496;13.482;2022-07-25T05:41:06;1.20;;;1.20;;
53931;SDS011;39844;52.496;13.482;2022-07-25T05:43:31;1.80;;;1.70;;
53931;SDS011;39844;52.496;13.482;2022-07-25T05:46:00;3.70;;;1.40;;
53931;SDS011;39844;52.496;13.482;2022-07-25T05:48:26;1.50;;;1.40;;
53931;SDS011;39844;52.496;13.482;2022-07-25T05:50:51;1.50;;;1.42;;
53931;SDS011;39844;52.496;13.482;2022-07-25T05:53:17;1.58;;;1.48;;
53931;SDS011;39844;52.496;13.482;2022-07-25T05:55:42;1.70;;;1.60;;
53931;SDS011;39844;52.496;13.482;2022-07-25T05:58:08;1.38;;;1.27;;
53931;SDS011;39844;52.496;13.482;2022-07-25T06:00:33;1.40;;;1.40;;
53931;SDS011;39844;52.496;13.482;2022-07-25T06:02:59;1.75;;;1.65;;
53931;SDS011;39844;52.496;13.482;2022-07-25T06:05:24;1.63;;;1.50;;
53931;SDS011;39844;52.496;13.482;2022-07-25T06:07:49;3.22;;;1.30;;
53931;SDS011;39844;52.496;13.482;2022-07-25T06:10:15;1.60;;;1.50;;
53931;SDS011;39844;52.496;13.482;2022-07-25T06:12:40;1.90;;;1.67;;
53931;SDS011;39844;52.496;13.482;2022-07-25T06:15:06;1.95;;;1.80;;
53931;SDS011;39844;52.496;13.482;2022-07-25T06:17:31;1.30;;;1.30;;
53931;SDS011;39844;52.496;13.482;2022-07-25T06:19:57;1.80;;;1.70;;
53931;SDS011;39844;52.496;13.482;2022-07-25T06:22:22;1.70;;;1.60;;
53931;SDS011;39844;52.496;13.482;2022-07-25T06:24:47;1.80;;;1.70;;
53931;SDS011;39844;52.496;13.482;2022-07-25T06:27:13;1.65;;;1.58;;
53931;SDS011;39844;52.496;13.482;2022-07-25T06:29:38;2.00;;;1.58;;
53931;SDS011;39844;52.496;13.482;2022-07-25T06:32:03;2.35;;;1.77;;
53931;SDS011;39844;52.496;13.482;2022-07-25T06:34:29;2.17;;;2.00;;
53931;SDS011;39844;52.496;13.482;2022-07-25T06:36:54;2.13;;;1.92;;
53931;SDS011;39844;52.496;13.482;2022-07-25T06:39:21;2.20;;;2.05;;
53931;SDS011;39844;52.496;13.482;2022-07-25T06:41:47;1.63;;;1.58;;
53931;SDS011;39844;52.496;13.482;2022-07-25T06:44:12;2.25;;;1.92;;
53931;SDS011;39844;52.496;13.482;2022-07-25T06:46:38;1.90;;;1.80;;
53931;SDS011;39844;52.496;13.482;2022-07-25T06:49:03;2.80;;;1.80;;
53931;SDS011;39844;52.496;13.482;2022-07-25T06:51:28;2.58;;;1.90;;
53931;SDS011;39844;52.496;13.482;2022-07-25T06:53:54;2.65;;;2.10;;
53931;SDS011;39844;52.496;13.482;2022-07-25T06:56:20;2.60;;;2.00;;
53931;SDS011;39844;52.496;13.482;2022-07-25T06:58:46;2.30;;;1.70;;
53931;SDS011;39844;52.496;13.482;2022-07-25T07:01:11;1.90;;;1.80;;
53931;SDS011;39844;52.496;13.482;2022-07-25T07:03:36;1.73;;;1.63;;
53931;SDS011;39844;52.496;13.482;2022-07-25T07:06:05;1.65;;;1.58;;
53931;SDS011;39844;52.496;13.482;2022-07-25T07:08:32;7.72;;;1.90;;
53931;SDS011;39844;52.496;13.482;2022-07-25T07:10:58;1.90;;;1.80;;
53931;SDS011;39844;52.496;13.482;2022-07-25T07:13:23;3.58;;;1.92;;
53931;SDS011;39844;52.496;13.482;2022-07-25T07:15:50;3.08;;;1.88;;
53931;SDS011;39844;52.496;13.482;2022-07-25T07:18:16;2.13;;;1.92;;
53931;SDS011;39844;52.496;13.482;2022-07-25T07:20:42;2.10;;;1.92;;
53931;SDS011;39844;52.496;13.482;2022-07-25T07:23:07;2.17;;;2.00;;
53931;SDS011;39844;52.496;13.482;2022-07-25T07:25:33;1.92;;;1.83;;
53931;SDS011;39844;52.496;13.482;2022-07-25T07:27:58;2.85;;;2.28;;
53931;SDS011;39844;52.496;13.482;2022-07-25T07:30:24;2.05;;;1.95;;
53931;SDS011;39844;52.496;13.482;2022-07-25T07:32:49;4.07;;;2.10;;
53931;SDS011;39844;52.496;13.482;2022-07-25T07:35:15;2.28;;;2.17;;
53931;SDS011;39844;52.496;13.482;2022-07-25T07:37:40;2.25;;;2.15;;
53931;SDS011;39844;52.496;13.482;2022-07-25T07:40:07;2.35;;;2.15;;
53931;SDS011;39844;52.496;13.482;2022-07-25T07:42:40;3.53;;;2.00;;
53931;SDS011;39844;52.496;13.482;2022-07-25T07:45:11;2.28;;;2.17;;
53931;SDS011;39844;52.496;13.482;2022-07-25T07:47:36;2.50;;;2.30;;
53931;SDS011;39844;52.496;13.482;2022-07-25T07:50:02;2.63;;;2.42;;
53931;SDS011;39844;52.496;13.482;2022-07-25T07:52:27;3.25;;;2.03;;
53931;SDS011;39844;52.496;13.482;2022-07-25T07:54:52;2.80;;;2.60;;
53931;SDS011;39844;52.496;13.482;2022-07-25T07:57:36;2.50;;;2.30;;
53931;SDS011;39844;52.496;13.482;2022-07-25T08:00:02;2.40;;;2.20;;
53931;SDS011;39844;52.496;13.482;2022-07-25T08:02:28;2.47;;;2.38;;
53931;SDS011;39844;52.496;13.482;2022-07-25T08:04:53;2.85;;;2.33;;
53931;SDS011;39844;52.496;13.482;2022-07-25T08:07:18;2.70;;;2.50;;
53931;SDS011;39844;52.496;13.482;2022-07-25T08:09:44;2.72;;;2.53;;
53931;SDS011;39844;52.496;13.482;2022-07-25T08:12:09;2.75;;;2.55;;
53931;SDS011;39844;52.496;13.482;2022-07-25T08:14:34;2.85;;;2.47;;
53931;SDS011;39844;52.496;13.482;2022-07-25T08:16:59;2.80;;;2.60;;
53931;SDS011;39844;52.496;13.482;2022-07-25T08:19:25;2.38;;;2.22;;
53931;SDS011;39844;52.496;13.482;2022-07-25T08:21:50;2.90;;;2.50;;
53931;SDS011;39844;52.496;13.482;2022-07-25T08:24:15;2.90;;;2.50;;
53931;SDS011;39844;52.496;13.482;2022-07-25T08:26:41;6.60;;;3.03;;
53931;SDS011;39844;52.496;13.482;2022-07-25T08:29:06;3.10;;;2.90;;
53931;SDS011;39844;52.496;13.482;2022-07-25T08:31:31;2.90;;;2.70;;
53931;SDS011;39844;52.496;13.482;2022-07-25T08:33:57;3.10;;;2.90;;
53931;SDS011;39844;52.496;13.482;2022-07-25T08:36:23;2.83;;;2.63;;
53931;SDS011;39844;52.496;13.482;2022-07-25T08:38:48;3.05;;;2.75;;
53931;SDS011;39844;52.496;13.482;2022-07-25T08:41:13;2.92;;;2.72;;
53931;SDS011;39844;52.496;13.482;2022-07-25T08:43:39;3.65;;;3.15;;
53931;SDS011;39844;52.496;13.482;2022-07-25T08:46:05;3.17;;;2.97;;
53931;SDS011;39844;52.496;13.482;2022-07-25T08:48:31;5.68;;;3.15;;
53931;SDS011;39844;52.496;13.482;2022-07-25T08:50:57;3.22;;;2.92;;
53931;SDS011;39844;52.496;13.482;2022-07-25T08:53:23;3.20;;;2.97;;
53931;SDS011;39844;52.496;13.482;2022-07-25T08:55:49;3.28;;;3.08;;
53931;SDS011;39844;52.496;13.482;2022-07-25T08:58:16;3.28;;;2.97;;
53931;SDS011;39844;52.496;13.482;2022-07-25T09:00:42;3.90;;;3.10;;
53931;SDS011;39844;52.496;13.482;2022-07-25T09:03:08;3.28;;;3.00;;
53931;SDS011;39844;52.496;13.482;2022-07-25T09:05:34;3.45;;;3.25;;
53931;SDS011;39844;52.496;13.482;2022-07-25T09:10:44;3.15;;;2.92;;
53931;SDS011;39844;52.496;13.482;2022-07-25T09:13:12;3.40;;;3.10;;
53931;SDS011;39844;52.496;13.482;2022-07-25T09:15:39;3.78;;;3.47;;
53931;SDS011;39844;52.496;13.482;2022-07-25T09:18:10;3.10;;;2.90;;
53931;SDS011;39844;52.496;13.482;2022-07-25T09:20:47;3.08;;;2.88;;
53931;SDS011;39844;52.496;13.482;2022-07-25T09:23:33;3.40;;;3.10;;
53931;SDS011;39844;52.496;13.482;2022-07-25T09:28:31;3.35;;;3.05;;
53931;SDS011;39844;52.496;13.482;2022-07-25T09:31:04;4.15;;;3.75;;
53931;SDS011;39844;52.496;13.482;2022-07-25T09:33:30;3.78;;;3.38;;
53931;SDS011;39844;52.496;13.482;2022-07-25T09:35:56;3.65;;;3.35;;
53931;SDS011;39844;52.496;13.482;2022-07-25T09:38:22;3.83;;;3.53;;
53931;SDS011;39844;52.496;13.482;2022-07-25T09:41:06;5.18;;;4.05;;
53931;SDS011;39844;52.496;13.482;2022-07-25T09:43:40;4.20;;;3.80;;
53931;SDS011;39844;52.496;13.482;2022-07-25T09:46:06;4.60;;;3.38;;
53931;SDS011;39844;52.496;13.482;2022-07-25T09:48:33;3.95;;;3.65;;
53931;SDS011;39844;52.496;13.482;2022-07-25T09:50:59;4.45;;;4.05;;
53931;SDS011;39844;52.496;13.482;2022-07-25T09:53:25;3.92;;;3.63;;
53931;SDS011;39844;52.496;13.482;2022-07-25T09:55:50;4.22;;;3.80;;
53931;SDS011;39844;52.496;13.482;2022-07-25T09:58:21;5.03;;;4.38;;
53931;SDS011;39844;52.496;13.482;2022-07-25T10:00:50;5.32;;;4.07;;
53931;SDS011;39844;52.496;13.482;2022-07-25T10:03:28;4.32;;;4.03;;
53931;SDS011;39844;52.496;13.482;2022-07-25T10:08:50;5.97;;;4.22;;
53931;SDS011;39844;52.496;13.482;2022-07-25T10:11:26;5.55;;;4.00;;
53931;SDS011;39844;52.496;13.482;2022-07-25T10:13:53;6.63;;;4.20;;
53931;SDS011;39844;52.496;13.482;2022-07-25T10:16:20;4.28;;;3.88;;
53931;SDS011;39844;52.496;13.482;2022-07-25T10:18:51;8.13;;;4.25;;
53931;SDS011;39844;52.496;13.482;2022-07-25T10:21:19;7.40;;;4.05;;
53931;SDS011;39844;52.496;13.482;2022-07-25T10:23:45;4.85;;;4.45;;
53931;SDS011;39844;52.496;13.482;2022-07-25T10:26:22;5.72;;;4.30;;
53931;SDS011;39844;52.496;13.482;2022-07-25T10:28:49;4.85;;;4.43;;
53931;SDS011;39844;52.496;13.482;2022-07-25T10:31:19;4.30;;;4.00;;
53931;SDS011;39844;52.496;13.482;2022-07-25T10:33:50;4.80;;;4.40;;
53931;SDS011;39844;52.496;13.482;2022-07-25T10:36:18;4.55;;;3.80;;
53931;SDS011;39844;52.496;13.482;2022-07-25T10:38:45;4.18;;;3.85;;
53931;SDS011;39844;52.496;13.482;2022-07-25T10:41:11;4.63;;;4.13;;
53931;SDS011;39844;52.496;13.482;2022-07-25T10:43:37;5.45;;;4.95;;
53931;SDS011;39844;52.496;13.482;2022-07-25T10:46:11;5.45;;;4.57;;
53931;SDS011;39844;52.496;13.482;2022-07-25T10:48:38;4.53;;;4.13;;
53931;SDS011;39844;52.496;13.482;2022-07-25T10:51:05;4.40;;;4.00;;
53931;SDS011;39844;52.496;13.482;2022-07-25T11:01:12;5.10;;;4.68;;
53931;SDS011;39844;52.496;13.482;2022-07-25T11:03:40;5.03;;;4.63;;
53931;SDS011;39844;52.496;13.482;2022-07-25T11:06:09;8.27;;;4.82;;
53931;SDS011;39844;52.496;13.482;2022-07-25T11:08:39;4.40;;;4.00;;
53931;SDS011;39844;52.496;13.482;2022-07-25T11:11:05;5.13;;;4.63;;
53931;SDS011;39844;52.496;13.482;2022-07-25T11:13:35;4.75;;;4.13;;
53931;SDS011;39844;52.496;13.482;2022-07-25T11:16:10;4.55;;;4.18;;
53931;SDS011;39844;52.496;13.482;2022-07-25T11:18:37;4.35;;;3.95;;
53931;SDS011;39844;52.496;13.482;2022-07-25T11:21:05;5.38;;;4.50;;
53931;SDS011;39844;52.496;13.482;2022-07-25T11:23:33;4.57;;;4.18;;
53931;SDS011;39844;52.496;13.482;2022-07-25T11:26:03;10.18;;;4.38;;
53931;SDS011;39844;52.496;13.482;2022-07-25T11:29:02;5.13;;;4.43;;
53931;SDS011;39844;52.496;13.482;2022-07-25T11:31:21;5.68;;;4.30;;
53931;SDS011;39844;52.496;13.482;2022-07-25T11:33:47;4.70;;;4.18;;
53931;SDS011;39844;52.496;13.482;2022-07-25T11:36:13;4.88;;;4.47;;
53931;SDS011;39844;52.496;13.482;2022-07-25T11:38:39;4.47;;;4.13;;
53931;SDS011;39844;52.496;13.482;2022-07-25T11:41:14;4.68;;;4.28;;
53931;SDS011;39844;52.496;13.482;2022-07-25T11:43:46;4.40;;;4.03;;
53931;SDS011;39844;52.496;13.482;2022-07-25T11:46:12;5.00;;;4.43;;
53931;SDS011;39844;52.496;13.482;2022-07-25T11:48:38;6.53;;;4.38;;
53931;SDS011;39844;52.496;13.482;2022-07-25T11:51:08;7.07;;;4.15;;
53931;SDS011;39844;52.496;13.482;2022-07-25T11:53:39;4.75;;;4.38;;
53931;SDS011;39844;52.496;13.482;2022-07-25T11:56:09;4.70;;;4.25;;
53931;SDS011;39844;52.496;13.482;2022-07-25T11:58:36;4.72;;;4.05;;
53931;SDS011;39844;52.496;13.482;2022-07-25T12:01:09;5.10;;;4.32;;
53931;SDS011;39844;52.496;13.482;2022-07-25T12:03:36;4.13;;;3.80;;
53931;SDS011;39844;52.496;13.482;2022-07-25T12:06:09;4.40;;;4.10;;
53931;SDS011;39844;52.496;13.482;2022-07-25T12:08:36;5.60;;;4.70;;
53931;SDS011;39844;52.496;13.482;2022-07-25T12:11:03;4.80;;;3.95;;
53931;SDS011;39844;52.496;13.482;2022-07-25T12:13:29;4.57;;;4.18;;
53931;SDS011;39844;52.496;13.482;2022-07-25T12:15:55;4.60;;;4.30;;
53931;SDS011;39844;52.496;13.482;2022-07-25T12:18:21;5.80;;;4.20;;
53931;SDS011;39844;52.496;13.482;2022-07-25T12:20:47;4.60;;;4.20;;
53931;SDS011;39844;52.496;13.482;2022-07-25T12:23:12;5.43;;;4.57;;
53931;SDS011;39844;52.496;13.482;2022-07-25T12:25:38;4.70;;;4.30;;
53931;SDS011;39844;52.496;13.482;2022-07-25T12:28:05;4.68;;;4.20;;
53931;SDS011;39844;52.496;13.482;2022-07-25T12:30:32;4.20;;;3.90;;
53931;SDS011;39844;52.496;13.482;2022-07-25T12:32:58;4.15;;;3.85;;
53931;SDS011;39844;52.496;13.482;2022-07-25T12:35:25;4.93;;;4.25;;
53931;SDS011;39844;52.496;13.482;2022-07-25T12:37:51;4.60;;;4.20;;
53931;SDS011;39844;52.496;13.482;2022-07-25T12:40:17;4.90;;;4.40;;
53931;SDS011;39844;52.496;13.482;2022-07-25T12:42:43;5.25;;;4.40;;
53931;SDS011;39844;52.496;13.482;2022-07-25T12:45:09;4.97;;;4.57;;
53931;SDS011;39844;52.496;13.482;2022-07-25T12:47:35;4.35;;;4.00;;
53931;SDS011;39844;52.496;13.482;2022-07-25T12:50:01;4.47;;;3.90;;
53931;SDS011;39844;52.496;13.482;2022-07-25T12:52:27;5.22;;;4.18;;
53931;SDS011;39844;52.496;13.482;2022-07-25T12:54:53;4.30;;;3.92;;
53931;SDS011;39844;52.496;13.482;2022-07-25T12:57:18;4.65;;;4.25;;
53931;SDS011;39844;52.496;13.482;2022-07-25T12:59:46;5.53;;;4.25;;
53931;SDS011;39844;52.496;13.482;2022-07-25T13:02:12;4.20;;;3.90;;
53931;SDS011;39844;52.496;13.482;2022-07-25T13:04:39;4.78;;;4.38;;
53931;SDS011;39844;52.496;13.482;2022-07-25T13:07:04;6.18;;;3.70;;
53931;SDS011;39844;52.496;13.482;2022-07-25T13:09:30;10.35;;;4.40;;
53931;SDS011;39844;52.496;13.482;2022-07-25T13:11:56;4.82;;;4.13;;
53931;SDS011;39844;52.496;13.482;2022-07-25T13:14:22;4.38;;;3.90;;
53931;SDS011;39844;52.496;13.482;2022-07-25T13:16:48;5.65;;;4.20;;
53931;SDS011;39844;52.496;13.482;2022-07-25T13:19:14;4.00;;;3.70;;
53931;SDS011;39844;52.496;13.482;2022-07-25T13:21:39;5.15;;;4.00;;
53931;SDS011;39844;52.496;13.482;2022-07-25T13:24:06;7.22;;;4.80;;
53931;SDS011;39844;52.496;13.482;2022-07-25T13:26:32;4.75;;;3.75;;
53931;SDS011;39844;52.496;13.482;2022-07-25T13:28:58;4.60;;;3.88;;
53931;SDS011;39844;52.496;13.482;2022-07-25T13:31:24;4.55;;;4.22;;
53931;SDS011;39844;52.496;13.482;2022-07-25T13:33:50;4.10;;;3.80;;
53931;SDS011;39844;52.496;13.482;2022-07-25T13:36:16;5.78;;;4.22;;
53931;SDS011;39844;52.496;13.482;2022-07-25T13:38:42;4.20;;;3.90;;
53931;SDS011;39844;52.496;13.482;2022-07-25T13:41:09;4.13;;;3.83;;
53931;SDS011;39844;52.496;13.482;2022-07-25T13:43:35;4.53;;;4.13;;
53931;SDS011;39844;52.496;13.482;2022-07-25T13:46:01;4.78;;;4.35;;
53931;SDS011;39844;52.496;13.482;2022-07-25T13:48:27;4.80;;;4.40;;
53931;SDS011;39844;52.496;13.482;2022-07-25T13:50:56;4.38;;;3.97;;
53931;SDS011;39844;52.496;13.482;2022-07-25T13:53:22;4.47;;;3.90;;
53931;SDS011;39844;52.496;13.482;2022-07-25T13:55:48;4.65;;;4.25;;
53931;SDS011;39844;52.496;13.482;2022-07-25T13:58:14;5.47;;;4.43;;
53931;SDS011;39844;52.496;13.482;2022-07-25T14:00:39;4.18;;;3.88;;
53931;SDS011;39844;52.496;13.482;2022-07-25T14:03:05;4.15;;;3.85;;
53931;SDS011;39844;52.496;13.482;2022-07-25T14:05:31;4.75;;;4.10;;
53931;SDS011;39844;52.496;13.482;2022-07-25T14:08:00;4.07;;;3.78;;
53931;SDS011;39844;52.496;13.482;2022-07-25T14:10:26;4.43;;;4.03;;
53931;SDS011;39844;52.496;13.482;2022-07-25T14:12:51;4.05;;;3.75;;
53931;SDS011;39844;52.496;13.482;2022-07-25T14:15:17;4.60;;;4.20;;
53931;SDS011;39844;52.496;13.482;2022-07-25T14:17:43;4.22;;;3.47;;
53931;SDS011;39844;52.496;13.482;2022-07-25T14:20:08;4.32;;;3.78;;
53931;SDS011;39844;52.496;13.482;2022-07-25T14:22:34;4.07;;;3.78;;
53931;SDS011;39844;52.496;13.482;2022-07-25T14:25:00;5.25;;;4.30;;
53931;SDS011;39844;52.496;13.482;2022-07-25T14:27:26;4.95;;;4.38;;
53931;SDS011;39844;52.496;13.482;2022-07-25T14:29:51;4.15;;;3.85;;
53931;SDS011;39844;52.496;13.482;2022-07-25T14:32:17;6.95;;;3.92;;
53931;SDS011;39844;52.496;13.482;2022-07-25T14:34:43;4.50;;;4.10;;
53931;SDS011;39844;52.496;13.482;2022-07-25T14:37:08;4.50;;;4.10;;
53931;SDS011;39844;52.496;13.482;2022-07-25T14:39:34;4.20;;;3.80;;
53931;SDS011;39844;52.496;13.482;2022-07-25T14:41:59;4.55;;;4.20;;
53931;SDS011;39844;52.496;13.482;2022-07-25T14:44:25;4.63;;;3.75;;